Авиационная погода в Берлевоге

Регион: 
Погода METAR: 
ENBV 262050Z 30020KT 9999 -SHSN FEW012 BKN020 01/M03 Q1007
Время наблюдения
2021-02-26T20:50:00Z
Температура C
1.0
Точка росы
-3.0
Направление ветра
300
Скорость ветра (узлы)
20
Метео видимость
6.21
Явления погоды
-SHSN
Условия полета
MVFR